sensor_id;sensor_type;location;lat;lon;timestamp;P1;durP1;ratioP1;P2;durP2;ratioP2
32295;SDS011;18781;51.550;5.418;2022-11-20T00:00:23;28.02;;;17.20;;
32295;SDS011;18781;51.550;5.418;2022-11-20T00:02:49;40.47;;;22.95;;
32295;SDS011;18781;51.550;5.418;2022-11-20T00:05:15;34.03;;;19.00;;
32295;SDS011;18781;51.550;5.418;2022-11-20T00:07:40;31.00;;;18.02;;
32295;SDS011;18781;51.550;5.418;2022-11-20T00:10:06;33.33;;;17.33;;
32295;SDS011;18781;51.550;5.418;2022-11-20T00:12:32;30.60;;;17.83;;
32295;SDS011;18781;51.550;5.418;2022-11-20T00:14:57;29.70;;;16.80;;
32295;SDS011;18781;51.550;5.418;2022-11-20T00:17:23;29.10;;;16.77;;
32295;SDS011;18781;51.550;5.418;2022-11-20T00:19:49;30.30;;;16.60;;
32295;SDS011;18781;51.550;5.418;2022-11-20T00:22:14;30.50;;;17.17;;
32295;SDS011;18781;51.550;5.418;2022-11-20T00:24:40;27.77;;;16.35;;
32295;SDS011;18781;51.550;5.418;2022-11-20T00:27:05;28.42;;;16.45;;
32295;SDS011;18781;51.550;5.418;2022-11-20T00:29:31;31.33;;;16.17;;
32295;SDS011;18781;51.550;5.418;2022-11-20T00:31:56;25.40;;;15.45;;
32295;SDS011;18781;51.550;5.418;2022-11-20T00:34:23;25.00;;;15.90;;
32295;SDS011;18781;51.550;5.418;2022-11-20T00:36:49;28.27;;;16.90;;
32295;SDS011;18781;51.550;5.418;2022-11-20T00:39:14;32.05;;;16.95;;
32295;SDS011;18781;51.550;5.418;2022-11-20T00:41:40;32.63;;;17.20;;
32295;SDS011;18781;51.550;5.418;2022-11-20T00:44:05;34.20;;;17.08;;
32295;SDS011;18781;51.550;5.418;2022-11-20T00:46:31;30.40;;;18.25;;
32295;SDS011;18781;51.550;5.418;2022-11-20T00:48:57;27.83;;;17.10;;
32295;SDS011;18781;51.550;5.418;2022-11-20T00:51:23;29.38;;;17.38;;
32295;SDS011;18781;51.550;5.418;2022-11-20T00:53:50;29.13;;;16.52;;
32295;SDS011;18781;51.550;5.418;2022-11-20T00:56:17;27.40;;;16.70;;
32295;SDS011;18781;51.550;5.418;2022-11-20T00:58:44;31.10;;;18.15;;
32295;SDS011;18781;51.550;5.418;2022-11-20T01:03:39;28.52;;;16.55;;
32295;SDS011;18781;51.550;5.418;2022-11-20T01:06:07;29.65;;;17.05;;
32295;SDS011;18781;51.550;5.418;2022-11-20T01:08:36;29.90;;;17.92;;
32295;SDS011;18781;51.550;5.418;2022-11-20T01:11:03;31.85;;;18.05;;
32295;SDS011;18781;51.550;5.418;2022-11-20T01:13:30;38.38;;;21.95;;
32295;SDS011;18781;51.550;5.418;2022-11-20T01:16:24;33.65;;;19.10;;
32295;SDS011;18781;51.550;5.418;2022-11-20T01:18:53;30.50;;;16.48;;
32295;SDS011;18781;51.550;5.418;2022-11-20T01:21:24;37.05;;;21.02;;
32295;SDS011;18781;51.550;5.418;2022-11-20T01:23:54;42.72;;;20.35;;
32295;SDS011;18781;51.550;5.418;2022-11-20T01:26:22;36.78;;;21.58;;
32295;SDS011;18781;51.550;5.418;2022-11-20T01:28:49;39.67;;;21.13;;
32295;SDS011;18781;51.550;5.418;2022-11-20T01:31:19;35.00;;;18.05;;
32295;SDS011;18781;51.550;5.418;2022-11-20T01:33:47;27.17;;;16.35;;
32295;SDS011;18781;51.550;5.418;2022-11-20T01:36:15;28.83;;;15.75;;
32295;SDS011;18781;51.550;5.418;2022-11-20T01:38:41;27.70;;;16.77;;
32295;SDS011;18781;51.550;5.418;2022-11-20T01:41:07;31.92;;;17.27;;
32295;SDS011;18781;51.550;5.418;2022-11-20T01:43:34;31.10;;;17.98;;
32295;SDS011;18781;51.550;5.418;2022-11-20T01:51:29;27.90;;;16.00;;
32295;SDS011;18781;51.550;5.418;2022-11-20T01:53:57;26.10;;;15.10;;
32295;SDS011;18781;51.550;5.418;2022-11-20T01:56:26;28.10;;;16.30;;
32295;SDS011;18781;51.550;5.418;2022-11-20T01:58:56;25.73;;;16.00;;
32295;SDS011;18781;51.550;5.418;2022-11-20T02:01:25;24.05;;;14.88;;
32295;SDS011;18781;51.550;5.418;2022-11-20T02:03:51;25.73;;;14.63;;
32295;SDS011;18781;51.550;5.418;2022-11-20T02:06:30;26.33;;;14.70;;
32295;SDS011;18781;51.550;5.418;2022-11-20T02:09:00;25.73;;;15.15;;
32295;SDS011;18781;51.550;5.418;2022-11-20T02:11:26;29.05;;;16.52;;
32295;SDS011;18781;51.550;5.418;2022-11-20T02:13:52;25.95;;;15.63;;
32295;SDS011;18781;51.550;5.418;2022-11-20T02:18:53;27.77;;;15.52;;
32295;SDS011;18781;51.550;5.418;2022-11-20T02:24:08;29.08;;;15.70;;
32295;SDS011;18781;51.550;5.418;2022-11-20T02:26:56;26.15;;;15.60;;
32295;SDS011;18781;51.550;5.418;2022-11-20T02:32:17;26.05;;;14.38;;
32295;SDS011;18781;51.550;5.418;2022-11-20T02:34:47;26.88;;;14.55;;
32295;SDS011;18781;51.550;5.418;2022-11-20T02:37:13;25.75;;;14.15;;
32295;SDS011;18781;51.550;5.418;2022-11-20T02:39:39;29.05;;;15.52;;
32295;SDS011;18781;51.550;5.418;2022-11-20T02:42:06;28.42;;;15.88;;
32295;SDS011;18781;51.550;5.418;2022-11-20T02:44:31;25.42;;;14.88;;
32295;SDS011;18781;51.550;5.418;2022-11-20T02:46:57;26.83;;;15.43;;
32295;SDS011;18781;51.550;5.418;2022-11-20T02:49:23;26.08;;;15.10;;
32295;SDS011;18781;51.550;5.418;2022-11-20T02:51:49;26.08;;;14.75;;
32295;SDS011;18781;51.550;5.418;2022-11-20T02:54:15;27.98;;;15.63;;
32295;SDS011;18781;51.550;5.418;2022-11-20T02:56:40;27.73;;;15.20;;
32295;SDS011;18781;51.550;5.418;2022-11-20T02:59:06;29.50;;;15.15;;
32295;SDS011;18781;51.550;5.418;2022-11-20T03:01:32;27.60;;;16.00;;
32295;SDS011;18781;51.550;5.418;2022-11-20T03:03:57;24.50;;;15.00;;
32295;SDS011;18781;51.550;5.418;2022-11-20T03:06:23;28.45;;;15.50;;
32295;SDS011;18781;51.550;5.418;2022-11-20T03:08:48;25.85;;;15.50;;
32295;SDS011;18781;51.550;5.418;2022-11-20T03:11:14;25.90;;;15.45;;
32295;SDS011;18781;51.550;5.418;2022-11-20T03:13:39;27.75;;;16.15;;
32295;SDS011;18781;51.550;5.418;2022-11-20T03:16:06;26.85;;;15.35;;
32295;SDS011;18781;51.550;5.418;2022-11-20T03:18:33;27.27;;;15.60;;
32295;SDS011;18781;51.550;5.418;2022-11-20T03:20:59;24.67;;;15.00;;
32295;SDS011;18781;51.550;5.418;2022-11-20T03:23:25;28.13;;;15.30;;
32295;SDS011;18781;51.550;5.418;2022-11-20T03:25:50;27.23;;;15.30;;
32295;SDS011;18781;51.550;5.418;2022-11-20T03:28:16;25.02;;;15.48;;
32295;SDS011;18781;51.550;5.418;2022-11-20T03:30:42;26.95;;;15.80;;
32295;SDS011;18781;51.550;5.418;2022-11-20T03:33:07;28.83;;;16.67;;
32295;SDS011;18781;51.550;5.418;2022-11-20T03:35:33;24.85;;;15.43;;
32295;SDS011;18781;51.550;5.418;2022-11-20T03:37:58;33.72;;;18.30;;
32295;SDS011;18781;51.550;5.418;2022-11-20T03:40:24;29.25;;;16.30;;
32295;SDS011;18781;51.550;5.418;2022-11-20T03:42:49;33.17;;;17.90;;
32295;SDS011;18781;51.550;5.418;2022-11-20T03:45:16;30.63;;;16.60;;
32295;SDS011;18781;51.550;5.418;2022-11-20T03:47:43;31.45;;;17.23;;
32295;SDS011;18781;51.550;5.418;2022-11-20T03:50:10;29.05;;;16.45;;
32295;SDS011;18781;51.550;5.418;2022-11-20T03:52:38;29.98;;;17.35;;
32295;SDS011;18781;51.550;5.418;2022-11-20T03:55:04;29.88;;;16.88;;
32295;SDS011;18781;51.550;5.418;2022-11-20T03:57:30;33.05;;;17.83;;
32295;SDS011;18781;51.550;5.418;2022-11-20T03:59:56;28.25;;;15.90;;
32295;SDS011;18781;51.550;5.418;2022-11-20T04:02:22;28.10;;;15.93;;
32295;SDS011;18781;51.550;5.418;2022-11-20T04:04:47;29.92;;;17.30;;
32295;SDS011;18781;51.550;5.418;2022-11-20T04:07:13;32.10;;;18.00;;
32295;SDS011;18781;51.550;5.418;2022-11-20T04:09:38;35.83;;;18.00;;
32295;SDS011;18781;51.550;5.418;2022-11-20T04:12:04;28.27;;;16.02;;
32295;SDS011;18781;51.550;5.418;2022-11-20T04:14:30;29.13;;;16.73;;
32295;SDS011;18781;51.550;5.418;2022-11-20T04:16:55;29.67;;;16.88;;
32295;SDS011;18781;51.550;5.418;2022-11-20T04:19:21;30.80;;;16.83;;
32295;SDS011;18781;51.550;5.418;2022-11-20T04:21:46;33.55;;;17.77;;
32295;SDS011;18781;51.550;5.418;2022-11-20T04:24:12;31.70;;;17.13;;
32295;SDS011;18781;51.550;5.418;2022-11-20T04:26:38;28.23;;;16.20;;
32295;SDS011;18781;51.550;5.418;2022-11-20T04:29:04;32.55;;;17.48;;
32295;SDS011;18781;51.550;5.418;2022-11-20T04:31:31;32.08;;;17.50;;
32295;SDS011;18781;51.550;5.418;2022-11-20T04:33:59;28.52;;;16.52;;
32295;SDS011;18781;51.550;5.418;2022-11-20T04:36:25;31.50;;;17.15;;
32295;SDS011;18781;51.550;5.418;2022-11-20T04:38:53;34.47;;;17.52;;
32295;SDS011;18781;51.550;5.418;2022-11-20T04:41:21;32.80;;;17.50;;
32295;SDS011;18781;51.550;5.418;2022-11-20T04:43:48;32.15;;;17.55;;
32295;SDS011;18781;51.550;5.418;2022-11-20T04:46:15;32.38;;;17.63;;
32295;SDS011;18781;51.550;5.418;2022-11-20T04:48:41;31.17;;;16.02;;
32295;SDS011;18781;51.550;5.418;2022-11-20T04:51:07;31.25;;;16.55;;
32295;SDS011;18781;51.550;5.418;2022-11-20T04:53:33;26.88;;;15.23;;
32295;SDS011;18781;51.550;5.418;2022-11-20T04:55:59;32.53;;;17.33;;
32295;SDS011;18781;51.550;5.418;2022-11-20T04:58:29;32.85;;;17.45;;
32295;SDS011;18781;51.550;5.418;2022-11-20T05:01:02;29.13;;;16.58;;
32295;SDS011;18781;51.550;5.418;2022-11-20T05:03:28;29.58;;;16.40;;
32295;SDS011;18781;51.550;5.418;2022-11-20T05:05:53;26.27;;;15.48;;
32295;SDS011;18781;51.550;5.418;2022-11-20T05:08:19;32.70;;;17.77;;
32295;SDS011;18781;51.550;5.418;2022-11-20T05:10:45;29.67;;;17.17;;
32295;SDS011;18781;51.550;5.418;2022-11-20T05:13:11;30.25;;;15.98;;
32295;SDS011;18781;51.550;5.418;2022-11-20T05:15:36;33.28;;;17.38;;
32295;SDS011;18781;51.550;5.418;2022-11-20T05:18:02;40.10;;;20.85;;
32295;SDS011;18781;51.550;5.418;2022-11-20T05:20:27;43.38;;;20.98;;
32295;SDS011;18781;51.550;5.418;2022-11-20T05:22:56;35.90;;;18.75;;
32295;SDS011;18781;51.550;5.418;2022-11-20T05:25:22;50.75;;;20.38;;
32295;SDS011;18781;51.550;5.418;2022-11-20T05:27:47;43.25;;;20.38;;
32295;SDS011;18781;51.550;5.418;2022-11-20T05:30:13;41.85;;;19.05;;
32295;SDS011;18781;51.550;5.418;2022-11-20T05:32:39;36.67;;;18.27;;
32295;SDS011;18781;51.550;5.418;2022-11-20T05:35:04;34.33;;;19.80;;
32295;SDS011;18781;51.550;5.418;2022-11-20T05:37:30;38.13;;;21.63;;
32295;SDS011;18781;51.550;5.418;2022-11-20T05:39:56;38.42;;;19.60;;
32295;SDS011;18781;51.550;5.418;2022-11-20T05:42:21;35.22;;;19.90;;
32295;SDS011;18781;51.550;5.418;2022-11-20T05:45:03;37.45;;;19.42;;
32295;SDS011;18781;51.550;5.418;2022-11-20T05:47:33;34.38;;;19.30;;
32295;SDS011;18781;51.550;5.418;2022-11-20T05:49:59;33.38;;;19.33;;
32295;SDS011;18781;51.550;5.418;2022-11-20T05:52:28;32.63;;;18.17;;
32295;SDS011;18781;51.550;5.418;2022-11-20T05:54:54;34.42;;;17.75;;
32295;SDS011;18781;51.550;5.418;2022-11-20T05:57:19;33.97;;;19.00;;
32295;SDS011;18781;51.550;5.418;2022-11-20T05:59:45;27.50;;;17.08;;
32295;SDS011;18781;51.550;5.418;2022-11-20T06:02:11;31.30;;;17.70;;
32295;SDS011;18781;51.550;5.418;2022-11-20T06:04:36;31.73;;;16.55;;
32295;SDS011;18781;51.550;5.418;2022-11-20T06:07:02;31.80;;;17.05;;
32295;SDS011;18781;51.550;5.418;2022-11-20T06:09:29;28.55;;;16.35;;
32295;SDS011;18781;51.550;5.418;2022-11-20T06:11:54;34.10;;;18.05;;
32295;SDS011;18781;51.550;5.418;2022-11-20T06:14:20;29.08;;;16.48;;
32295;SDS011;18781;51.550;5.418;2022-11-20T06:16:46;32.13;;;16.55;;
32295;SDS011;18781;51.550;5.418;2022-11-20T06:19:11;32.58;;;18.23;;
32295;SDS011;18781;51.550;5.418;2022-11-20T06:21:37;34.58;;;17.58;;
32295;SDS011;18781;51.550;5.418;2022-11-20T06:24:03;34.45;;;17.25;;
32295;SDS011;18781;51.550;5.418;2022-11-20T06:26:28;30.85;;;17.40;;
32295;SDS011;18781;51.550;5.418;2022-11-20T06:28:55;33.38;;;17.80;;
32295;SDS011;18781;51.550;5.418;2022-11-20T06:31:21;30.83;;;17.00;;
32295;SDS011;18781;51.550;5.418;2022-11-20T06:33:48;31.73;;;18.10;;
32295;SDS011;18781;51.550;5.418;2022-11-20T06:36:15;30.75;;;16.85;;
32295;SDS011;18781;51.550;5.418;2022-11-20T06:38:42;31.45;;;16.48;;
32295;SDS011;18781;51.550;5.418;2022-11-20T06:41:12;32.78;;;16.48;;
32295;SDS011;18781;51.550;5.418;2022-11-20T06:43:42;33.65;;;17.98;;
32295;SDS011;18781;51.550;5.418;2022-11-20T06:46:09;33.42;;;16.73;;
32295;SDS011;18781;51.550;5.418;2022-11-20T06:48:36;32.75;;;18.00;;
32295;SDS011;18781;51.550;5.418;2022-11-20T06:51:05;34.22;;;17.70;;
32295;SDS011;18781;51.550;5.418;2022-11-20T06:53:32;38.75;;;18.25;;
32295;SDS011;18781;51.550;5.418;2022-11-20T06:55:59;32.97;;;17.42;;
32295;SDS011;18781;51.550;5.418;2022-11-20T06:58:28;38.45;;;18.20;;
32295;SDS011;18781;51.550;5.418;2022-11-20T07:00:58;28.73;;;18.25;;
32295;SDS011;18781;51.550;5.418;2022-11-20T07:03:29;34.15;;;18.90;;
32295;SDS011;18781;51.550;5.418;2022-11-20T07:05:55;35.63;;;19.17;;
32295;SDS011;18781;51.550;5.418;2022-11-20T07:08:21;33.63;;;18.25;;
32295;SDS011;18781;51.550;5.418;2022-11-20T07:10:47;33.53;;;17.80;;
32295;SDS011;18781;51.550;5.418;2022-11-20T07:13:12;35.00;;;17.98;;
32295;SDS011;18781;51.550;5.418;2022-11-20T07:15:38;35.75;;;18.77;;
32295;SDS011;18781;51.550;5.418;2022-11-20T07:18:04;35.00;;;18.98;;
32295;SDS011;18781;51.550;5.418;2022-11-20T07:20:30;35.33;;;19.38;;
32295;SDS011;18781;51.550;5.418;2022-11-20T07:22:55;33.25;;;18.88;;
32295;SDS011;18781;51.550;5.418;2022-11-20T07:25:22;34.75;;;18.83;;
32295;SDS011;18781;51.550;5.418;2022-11-20T07:27:48;32.85;;;17.95;;
32295;SDS011;18781;51.550;5.418;2022-11-20T07:30:14;36.95;;;20.23;;
32295;SDS011;18781;51.550;5.418;2022-11-20T07:32:40;35.38;;;19.15;;
32295;SDS011;18781;51.550;5.418;2022-11-20T07:35:06;36.45;;;18.50;;
32295;SDS011;18781;51.550;5.418;2022-11-20T07:37:35;34.47;;;18.92;;
32295;SDS011;18781;51.550;5.418;2022-11-20T07:40:00;25.88;;;14.32;;
32295;SDS011;18781;51.550;5.418;2022-11-20T07:42:27;30.98;;;18.10;;
32295;SDS011;18781;51.550;5.418;2022-11-20T07:44:52;34.10;;;18.83;;
32295;SDS011;18781;51.550;5.418;2022-11-20T07:47:18;42.20;;;22.33;;
32295;SDS011;18781;51.550;5.418;2022-11-20T07:49:43;35.72;;;19.95;;
32295;SDS011;18781;51.550;5.418;2022-11-20T07:52:09;36.53;;;19.55;;
32295;SDS011;18781;51.550;5.418;2022-11-20T07:54:34;34.72;;;19.85;;
32295;SDS011;18781;51.550;5.418;2022-11-20T07:57:00;35.60;;;19.20;;
32295;SDS011;18781;51.550;5.418;2022-11-20T07:59:25;32.42;;;18.33;;
32295;SDS011;18781;51.550;5.418;2022-11-20T08:01:51;35.20;;;20.27;;
32295;SDS011;18781;51.550;5.418;2022-11-20T08:04:17;32.70;;;20.17;;
32295;SDS011;18781;51.550;5.418;2022-11-20T08:06:42;33.63;;;19.33;;
32295;SDS011;18781;51.550;5.418;2022-11-20T08:09:08;32.90;;;19.85;;
32295;SDS011;18781;51.550;5.418;2022-11-20T08:11:34;39.13;;;20.73;;
32295;SDS011;18781;51.550;5.418;2022-11-20T08:14:18;33.70;;;18.25;;
32295;SDS011;18781;51.550;5.418;2022-11-20T08:16:45;31.75;;;18.38;;
32295;SDS011;18781;51.550;5.418;2022-11-20T08:19:12;32.17;;;18.98;;
32295;SDS011;18781;51.550;5.418;2022-11-20T08:21:42;33.35;;;18.73;;
32295;SDS011;18781;51.550;5.418;2022-11-20T08:24:09;32.90;;;18.80;;
32295;SDS011;18781;51.550;5.418;2022-11-20T08:26:36;34.88;;;19.23;;
32295;SDS011;18781;51.550;5.418;2022-11-20T08:29:02;32.85;;;18.48;;
32295;SDS011;18781;51.550;5.418;2022-11-20T08:31:29;31.90;;;19.13;;
32295;SDS011;18781;51.550;5.418;2022-11-20T08:33:55;31.10;;;19.15;;
32295;SDS011;18781;51.550;5.418;2022-11-20T08:36:21;35.15;;;20.17;;
32295;SDS011;18781;51.550;5.418;2022-11-20T08:38:48;30.55;;;19.33;;
32295;SDS011;18781;51.550;5.418;2022-11-20T08:41:15;33.97;;;20.70;;
32295;SDS011;18781;51.550;5.418;2022-11-20T08:43:54;32.33;;;19.58;;
32295;SDS011;18781;51.550;5.418;2022-11-20T08:46:24;33.70;;;18.92;;
32295;SDS011;18781;51.550;5.418;2022-11-20T08:48:50;38.97;;;19.30;;
32295;SDS011;18781;51.550;5.418;2022-11-20T08:51:17;31.77;;;19.15;;
32295;SDS011;18781;51.550;5.418;2022-11-20T08:53:43;34.72;;;19.63;;
32295;SDS011;18781;51.550;5.418;2022-11-20T08:56:09;39.85;;;21.38;;
32295;SDS011;18781;51.550;5.418;2022-11-20T08:58:35;40.00;;;21.88;;
32295;SDS011;18781;51.550;5.418;2022-11-20T09:01:01;35.42;;;20.33;;
32295;SDS011;18781;51.550;5.418;2022-11-20T09:03:27;36.45;;;20.00;;
32295;SDS011;18781;51.550;5.418;2022-11-20T09:05:59;35.35;;;20.45;;
32295;SDS011;18781;51.550;5.418;2022-11-20T09:08:26;35.95;;;20.75;;
32295;SDS011;18781;51.550;5.418;2022-11-20T09:10:53;36.28;;;21.27;;
32295;SDS011;18781;51.550;5.418;2022-11-20T09:13:20;37.50;;;21.95;;
32295;SDS011;18781;51.550;5.418;2022-11-20T09:15:46;37.67;;;22.63;;
32295;SDS011;18781;51.550;5.418;2022-11-20T09:18:12;37.05;;;21.35;;
32295;SDS011;18781;51.550;5.418;2022-11-20T09:20:38;39.08;;;21.58;;
32295;SDS011;18781;51.550;5.418;2022-11-20T09:23:03;36.70;;;21.13;;
32295;SDS011;18781;51.550;5.418;2022-11-20T09:25:29;37.17;;;21.90;;
32295;SDS011;18781;51.550;5.418;2022-11-20T09:27:58;36.00;;;19.73;;
32295;SDS011;18781;51.550;5.418;2022-11-20T09:32:50;35.97;;;20.50;;
32295;SDS011;18781;51.550;5.418;2022-11-20T09:35:15;37.38;;;21.77;;
32295;SDS011;18781;51.550;5.418;2022-11-20T09:37:42;39.40;;;21.63;;
32295;SDS011;18781;51.550;5.418;2022-11-20T09:40:16;41.50;;;21.63;;
32295;SDS011;18781;51.550;5.418;2022-11-20T09:42:45;43.05;;;21.70;;
32295;SDS011;18781;51.550;5.418;2022-11-20T09:56:16;52.47;;;23.60;;
32295;SDS011;18781;51.550;5.418;2022-11-20T09:59:02;52.97;;;24.58;;
32295;SDS011;18781;51.550;5.418;2022-11-20T10:01:31;56.35;;;25.33;;
32295;SDS011;18781;51.550;5.418;2022-11-20T10:04:04;55.47;;;24.90;;
32295;SDS011;18781;51.550;5.418;2022-11-20T10:06:56;59.33;;;25.55;;
32295;SDS011;18781;51.550;5.418;2022-11-20T10:09:36;52.72;;;25.83;;
32295;SDS011;18781;51.550;5.418;2022-11-20T10:20:01;59.60;;;28.15;;
32295;SDS011;18781;51.550;5.418;2022-11-20T10:25:50;64.53;;;28.60;;
32295;SDS011;18781;51.550;5.418;2022-11-20T10:28:37;67.70;;;27.45;;
32295;SDS011;18781;51.550;5.418;2022-11-20T10:31:31;60.95;;;26.83;;
32295;SDS011;18781;51.550;5.418;2022-11-20T10:34:02;68.22;;;28.85;;
32295;SDS011;18781;51.550;5.418;2022-11-20T10:36:37;66.20;;;28.10;;
32295;SDS011;18781;51.550;5.418;2022-11-20T10:39:14;69.30;;;28.70;;
32295;SDS011;18781;51.550;5.418;2022-11-20T10:41:48;74.70;;;29.38;;
32295;SDS011;18781;51.550;5.418;2022-11-20T10:44:17;71.55;;;30.35;;
32295;SDS011;18781;51.550;5.418;2022-11-20T10:47:22;69.57;;;29.70;;
32295;SDS011;18781;51.550;5.418;2022-11-20T10:49:51;72.53;;;29.52;;
32295;SDS011;18781;51.550;5.418;2022-11-20T10:54:56;76.13;;;28.80;;
32295;SDS011;18781;51.550;5.418;2022-11-20T11:00:11;73.93;;;31.63;;
32295;SDS011;18781;51.550;5.418;2022-11-20T11:02:42;69.63;;;30.88;;
32295;SDS011;18781;51.550;5.418;2022-11-20T11:07:45;68.60;;;29.48;;
32295;SDS011;18781;51.550;5.418;2022-11-20T11:10:14;72.45;;;31.38;;
32295;SDS011;18781;51.550;5.418;2022-11-20T11:12:47;71.18;;;31.10;;
32295;SDS011;18781;51.550;5.418;2022-11-20T11:15:58;68.43;;;31.25;;
32295;SDS011;18781;51.550;5.418;2022-11-20T11:18:03;69.75;;;31.23;;
32295;SDS011;18781;51.550;5.418;2022-11-20T11:20:29;68.78;;;30.88;;
32295;SDS011;18781;51.550;5.418;2022-11-20T11:22:56;63.33;;;28.90;;
32295;SDS011;18781;51.550;5.418;2022-11-20T11:25:24;62.08;;;29.73;;
32295;SDS011;18781;51.550;5.418;2022-11-20T11:28:04;65.22;;;29.58;;
32295;SDS011;18781;51.550;5.418;2022-11-20T11:30:43;63.97;;;28.88;;
32295;SDS011;18781;51.550;5.418;2022-11-20T11:33:10;66.43;;;29.45;;
32295;SDS011;18781;51.550;5.418;2022-11-20T11:35:44;68.40;;;30.85;;
32295;SDS011;18781;51.550;5.418;2022-11-20T11:38:14;66.22;;;30.55;;
32295;SDS011;18781;51.550;5.418;2022-11-20T11:40:42;68.22;;;31.15;;
32295;SDS011;18781;51.550;5.418;2022-11-20T11:43:16;67.40;;;31.85;;
32295;SDS011;18781;51.550;5.418;2022-11-20T11:46:09;63.83;;;29.80;;
32295;SDS011;18781;51.550;5.418;2022-11-20T11:52:20;71.47;;;31.90;;
32295;SDS011;18781;51.550;5.418;2022-11-20T11:57:29;73.07;;;33.67;;
32295;SDS011;18781;51.550;5.418;2022-11-20T12:00:03;74.38;;;33.70;;
32295;SDS011;18781;51.550;5.418;2022-11-20T12:05:18;85.20;;;36.28;;
32295;SDS011;18781;51.550;5.418;2022-11-20T12:07:52;87.35;;;37.33;;
32295;SDS011;18781;51.550;5.418;2022-11-20T12:16:15;81.43;;;37.03;;
32295;SDS011;18781;51.550;5.418;2022-11-20T12:18:44;87.82;;;36.88;;
32295;SDS011;18781;51.550;5.418;2022-11-20T12:24:00;87.90;;;37.83;;
32295;SDS011;18781;51.550;5.418;2022-11-20T12:34:52;90.63;;;37.53;;
32295;SDS011;18781;51.550;5.418;2022-11-20T12:40:34;92.72;;;40.03;;
32295;SDS011;18781;51.550;5.418;2022-11-20T12:43:18;95.05;;;40.78;;
32295;SDS011;18781;51.550;5.418;2022-11-20T12:46:25;100.03;;;39.35;;
32295;SDS011;18781;51.550;5.418;2022-11-20T12:57:05;77.22;;;34.83;;
32295;SDS011;18781;51.550;5.418;2022-11-20T13:02:44;81.35;;;34.05;;
32295;SDS011;18781;51.550;5.418;2022-11-20T13:08:33;77.90;;;34.00;;
32295;SDS011;18781;51.550;5.418;2022-11-20T13:11:07;74.22;;;31.98;;
32295;SDS011;18781;51.550;5.418;2022-11-20T13:13:42;80.85;;;32.50;;
32295;SDS011;18781;51.550;5.418;2022-11-20T13:18:49;83.07;;;34.28;;
32295;SDS011;18781;51.550;5.418;2022-11-20T13:21:19;86.65;;;35.63;;
32295;SDS011;18781;51.550;5.418;2022-11-20T13:23:46;88.25;;;36.42;;
32295;SDS011;18781;51.550;5.418;2022-11-20T13:28:44;79.55;;;34.20;;
32295;SDS011;18781;51.550;5.418;2022-11-20T13:31:24;83.75;;;34.60;;
32295;SDS011;18781;51.550;5.418;2022-11-20T13:33:57;84.70;;;36.00;;
32295;SDS011;18781;51.550;5.418;2022-11-20T13:36:26;73.72;;;33.42;;
32295;SDS011;18781;51.550;5.418;2022-11-20T13:38:53;74.93;;;33.75;;
32295;SDS011;18781;51.550;5.418;2022-11-20T13:41:38;80.18;;;34.83;;
32295;SDS011;18781;51.550;5.418;2022-11-20T13:44:08;76.82;;;32.97;;
32295;SDS011;18781;51.550;5.418;2022-11-20T13:46:35;73.97;;;33.17;;
32295;SDS011;18781;51.550;5.418;2022-11-20T13:49:25;78.72;;;33.33;;
32295;SDS011;18781;51.550;5.418;2022-11-20T13:51:59;83.97;;;35.28;;
32295;SDS011;18781;51.550;5.418;2022-11-20T13:54:52;79.35;;;32.78;;
32295;SDS011;18781;51.550;5.418;2022-11-20T14:00:41;78.78;;;33.42;;
32295;SDS011;18781;51.550;5.418;2022-11-20T14:03:13;71.80;;;31.42;;
32295;SDS011;18781;51.550;5.418;2022-11-20T14:05:50;74.22;;;33.10;;
32295;SDS011;18781;51.550;5.418;2022-11-20T14:08:23;77.00;;;33.58;;
32295;SDS011;18781;51.550;5.418;2022-11-20T14:11:02;82.63;;;34.65;;
32295;SDS011;18781;51.550;5.418;2022-11-20T14:13:59;70.80;;;33.05;;
32295;SDS011;18781;51.550;5.418;2022-11-20T14:16:35;76.38;;;32.42;;
32295;SDS011;18781;51.550;5.418;2022-11-20T14:21:45;72.72;;;33.38;;
32295;SDS011;18781;51.550;5.418;2022-11-20T14:24:12;74.85;;;32.58;;
32295;SDS011;18781;51.550;5.418;2022-11-20T14:26:42;77.45;;;34.00;;
32295;SDS011;18781;51.550;5.418;2022-11-20T14:29:28;73.53;;;32.88;;
32295;SDS011;18781;51.550;5.418;2022-11-20T14:31:59;70.50;;;31.73;;
32295;SDS011;18781;51.550;5.418;2022-11-20T14:34:27;74.93;;;32.72;;
32295;SDS011;18781;51.550;5.418;2022-11-20T14:36:59;69.88;;;32.17;;
32295;SDS011;18781;51.550;5.418;2022-11-20T14:39:29;74.57;;;32.67;;
32295;SDS011;18781;51.550;5.418;2022-11-20T14:42:01;80.80;;;32.78;;
32295;SDS011;18781;51.550;5.418;2022-11-20T14:44:32;74.93;;;35.58;;
32295;SDS011;18781;51.550;5.418;2022-11-20T14:47:02;78.78;;;35.20;;
32295;SDS011;18781;51.550;5.418;2022-11-20T14:49:29;78.40;;;37.50;;
32295;SDS011;18781;51.550;5.418;2022-11-20T14:51:59;76.05;;;33.28;;
32295;SDS011;18781;51.550;5.418;2022-11-20T14:54:26;73.85;;;33.33;;
32295;SDS011;18781;51.550;5.418;2022-11-20T14:56:57;72.93;;;33.72;;
32295;SDS011;18781;51.550;5.418;2022-11-20T14:59:25;77.85;;;33.85;;
32295;SDS011;18781;51.550;5.418;2022-11-20T15:01:58;84.03;;;36.13;;
32295;SDS011;18781;51.550;5.418;2022-11-20T15:04:24;71.30;;;32.15;;
32295;SDS011;18781;51.550;5.418;2022-11-20T15:06:50;74.55;;;33.40;;
32295;SDS011;18781;51.550;5.418;2022-11-20T15:09:17;74.60;;;34.13;;
32295;SDS011;18781;51.550;5.418;2022-11-20T15:14:18;73.28;;;33.97;;
32295;SDS011;18781;51.550;5.418;2022-11-20T15:16:43;73.65;;;35.05;;
32295;SDS011;18781;51.550;5.418;2022-11-20T15:19:16;69.82;;;32.47;;
32295;SDS011;18781;51.550;5.418;2022-11-20T15:21:44;70.82;;;33.20;;
32295;SDS011;18781;51.550;5.418;2022-11-20T15:24:09;70.32;;;32.95;;
32295;SDS011;18781;51.550;5.418;2022-11-20T15:26:35;68.75;;;32.67;;
32295;SDS011;18781;51.550;5.418;2022-11-20T15:29:04;79.00;;;31.95;;
32295;SDS011;18781;51.550;5.418;2022-11-20T15:31:29;69.88;;;31.75;;
32295;SDS011;18781;51.550;5.418;2022-11-20T15:33:55;70.65;;;32.30;;
32295;SDS011;18781;51.550;5.418;2022-11-20T15:36:20;76.78;;;34.58;;
32295;SDS011;18781;51.550;5.418;2022-11-20T15:38:46;75.13;;;34.10;;
32295;SDS011;18781;51.550;5.418;2022-11-20T15:41:11;75.25;;;35.80;;
32295;SDS011;18781;51.550;5.418;2022-11-20T15:43:37;84.30;;;38.25;;
32295;SDS011;18781;51.550;5.418;2022-11-20T15:46:04;75.50;;;35.38;;
32295;SDS011;18781;51.550;5.418;2022-11-20T15:48:35;75.82;;;34.00;;
32295;SDS011;18781;51.550;5.418;2022-11-20T15:51:12;69.82;;;32.85;;
32295;SDS011;18781;51.550;5.418;2022-11-20T15:53:41;65.68;;;29.90;;
32295;SDS011;18781;51.550;5.418;2022-11-20T15:56:13;65.15;;;30.92;;
32295;SDS011;18781;51.550;5.418;2022-11-20T15:58:39;66.65;;;31.30;;
32295;SDS011;18781;51.550;5.418;2022-11-20T16:01:09;68.10;;;30.05;;
32295;SDS011;18781;51.550;5.418;2022-11-20T16:03:36;62.92;;;29.35;;
32295;SDS011;18781;51.550;5.418;2022-11-20T16:06:02;63.10;;;29.90;;
32295;SDS011;18781;51.550;5.418;2022-11-20T16:08:27;61.97;;;29.13;;
32295;SDS011;18781;51.550;5.418;2022-11-20T16:10:53;74.78;;;34.30;;
32295;SDS011;18781;51.550;5.418;2022-11-20T16:13:18;69.10;;;32.22;;
32295;SDS011;18781;51.550;5.418;2022-11-20T16:16:07;60.17;;;28.95;;